Time;durP1;ratioP1;P1;durP2;ratioP2;P2;SDS_P1;SDS_P2;PMS_P1;PMS_P2;Temp;Humidity;BMP_temperature;BMP_pressure;BME280_temperature;BME280_humidity;BME280_pressure;Samples;Min_cycle;Max_cycle;Signal;HPM_P1;HPM_P2
2022/05/09 00:00:14;;;;;;;2.70;1.80;;;20.30;40.50;;;;;;5081215;28;20454;-60
2022/05/09 00:02:40;;;;;;;1.70;1.60;;;20.30;40.40;;;;;;5079612;27;20557;-61
2022/05/09 00:05:09;;;;;;;1.60;1.50;;;20.30;40.40;;;;;;5081495;27;20431;-60
2022/05/09 00:07:34;;;;;;;2.60;1.53;;;20.30;40.40;;;;;;5080956;27;20782;-60
2022/05/09 00:10:00;;;;;;;2.10;1.90;;;20.30;41.20;;;;;;5077020;27;21023;-60
2022/05/09 00:12:26;;;;;;;1.57;1.47;;;20.30;40.30;;;;;;5087126;28;20258;-60
2022/05/09 00:14:52;;;;;;;6.70;2.50;;;20.20;40.20;;;;;;5076292;28;20328;-60
2022/05/09 00:17:19;;;;;;;2.60;1.83;;;20.30;40.30;;;;;;5081717;28;20536;-59
2022/05/09 00:19:44;;;;;;;1.77;1.67;;;20.20;40.20;;;;;;5081654;28;20218;-61
2022/05/09 00:22:10;;;;;;;1.70;1.60;;;20.20;40.20;;;;;;5081659;28;20936;-60
2022/05/09 00:24:36;;;;;;;2.40;1.77;;;20.20;40.10;;;;;;5076845;27;20838;-61
2022/05/09 00:27:02;;;;;;;1.60;1.50;;;20.20;40.20;;;;;;5076434;28;20221;-60
2022/05/09 00:29:27;;;;;;;2.17;1.97;;;20.20;40.10;;;;;;5081640;28;20230;-60
2022/05/09 00:31:56;;;;;;;1.60;1.50;;;20.20;40.10;;;;;;5078985;28;20939;-60
2022/05/09 00:34:23;;;;;;;1.80;1.70;;;20.20;40.10;;;;;;5078568;28;20306;-62
2022/05/09 00:36:52;;;;;;;1.97;1.87;;;20.20;40.00;;;;;;5082285;28;20471;-60
2022/05/09 00:39:18;;;;;;;1.70;1.60;;;20.20;40.00;;;;;;5079759;28;20932;-60
2022/05/09 00:41:45;;;;;;;1.90;1.80;;;20.20;40.00;;;;;;5083742;28;20453;-61
2022/05/09 00:44:14;;;;;;;1.73;1.63;;;20.20;40.00;;;;;;5082802;27;20453;-60
2022/05/09 00:46:42;;;;;;;1.83;1.73;;;20.20;40.00;;;;;;5078400;27;20451;-61
2022/05/09 00:49:16;;;;;;;4.80;1.93;;;20.20;40.00;;;;;;5074593;28;20431;-61
2022/05/09 00:51:49;;;;;;;1.60;1.50;;;20.20;39.90;;;;;;5078738;27;20416;-62
2022/05/09 00:54:16;;;;;;;1.90;1.80;;;20.20;39.90;;;;;;5111388;27;20451;-60
2022/05/09 00:56:55;;;;;;;1.90;1.70;;;20.20;39.80;;;;;;5078814;27;20449;-60
2022/05/09 00:59:21;;;;;;;1.70;1.60;;;20.20;39.80;;;;;;5074624;28;20470;-60
2022/05/09 01:01:47;;;;;;;1.50;1.40;;;20.20;39.90;;;;;;5075865;28;20435;-60
2022/05/09 01:04:21;;;;;;;1.73;1.63;;;20.20;39.70;;;;;;5080576;27;20462;-61
2022/05/09 01:06:48;;;;;;;1.93;1.70;;;20.20;39.70;;;;;;5075560;28;20431;-60
2022/05/09 01:09:13;;;;;;;2.07;1.97;;;20.20;39.70;;;;;;5081132;27;20517;-61
2022/05/09 01:11:43;;;;;;;1.80;1.70;;;20.20;39.60;;;;;;5077597;28;20456;-61
2022/05/09 01:14:15;;;;;;;1.87;1.70;;;20.20;39.50;;;;;;5079357;28;20313;-61
2022/05/09 01:16:41;;;;;;;2.03;1.83;;;20.20;39.60;;;;;;5079535;27;20458;-60
2022/05/09 01:19:24;;;;;;;2.30;2.10;;;20.20;39.40;;;;;;5084453;27;20532;-61
2022/05/09 01:21:50;;;;;;;2.33;1.90;;;20.20;39.40;;;;;;5076160;28;20453;-61
2022/05/09 01:24:18;;;;;;;1.90;1.80;;;20.20;39.40;;;;;;5083007;28;20446;-60
2022/05/09 01:26:44;;;;;;;1.70;1.60;;;20.20;40.10;;;;;;5079061;28;20223;-63
2022/05/09 01:29:29;;;;;;;2.03;1.90;;;20.20;39.40;;;;;;5078108;28;20878;-61
2022/05/09 01:31:57;;;;;;;1.93;1.53;;;20.20;39.40;;;;;;5083882;28;20700;-61
2022/05/09 01:34:22;;;;;;;1.60;1.50;;;20.20;39.40;;;;;;5078036;27;21001;-59
2022/05/09 01:36:54;;;;;;;1.53;1.43;;;20.20;39.40;;;;;;5079331;27;20429;-60
2022/05/09 01:39:20;;;;;;;1.90;1.80;;;20.20;39.40;;;;;;5076760;28;20226;-60
2022/05/09 01:41:50;;;;;;;2.00;1.90;;;20.20;40.10;;;;;;5079838;27;20946;-60
2022/05/09 01:44:17;;;;;;;2.43;2.33;;;20.20;39.40;;;;;;5080669;27;20222;-60
2022/05/09 01:49:31;;;;;;;1.60;1.50;;;20.20;39.40;;;;;;5079253;27;20437;-60
2022/05/09 01:52:04;;;;;;;1.73;1.63;;;20.20;39.40;;;;;;5081421;27;20962;-61
2022/05/09 01:54:30;;;;;;;2.13;1.90;;;20.20;39.50;;;;;;5082171;27;20979;-61
2022/05/09 01:56:56;;;;;;;2.07;1.90;;;20.20;39.40;;;;;;5080119;28;21012;-60
2022/05/09 01:59:22;;;;;;;1.73;1.50;;;20.20;39.40;;;;;;5079979;28;20873;-61
2022/05/09 02:01:52;;;;;;;2.03;1.73;;;20.20;39.40;;;;;;5081688;27;20429;-61
2022/05/09 02:04:19;;;;;;;1.80;1.70;;;20.20;39.40;;;;;;5082497;27;20226;-60
2022/05/09 02:06:45;;;;;;;1.53;1.43;;;20.20;39.40;;;;;;5077854;28;20461;-60
2022/05/09 02:09:11;;;;;;;2.20;2.00;;;20.20;40.10;;;;;;5076390;27;20588;-60
2022/05/09 02:11:37;;;;;;;1.70;1.60;;;20.20;39.40;;;;;;5063517;28;20794;-60
2022/05/09 02:14:04;;;;;;;2.00;1.90;;;20.20;39.40;;;;;;5058544;28;20995;-60
2022/05/09 02:16:29;;;;;;;1.80;1.70;;;20.20;39.40;;;;;;5059461;28;20449;-60
2022/05/09 02:18:55;;;;;;;1.77;1.67;;;20.20;39.40;;;;;;5061959;28;20426;-61
2022/05/09 02:21:21;;;;;;;1.90;1.80;;;20.20;39.40;;;;;;5063785;28;20300;-60
2022/05/09 02:23:47;;;;;;;2.00;1.90;;;20.20;39.40;;;;;;5058758;28;20498;-61
2022/05/09 02:26:13;;;;;;;1.93;1.77;;;20.20;39.40;;;;;;5064360;28;20234;-61
2022/05/09 02:28:39;;;;;;;2.20;1.90;;;20.20;39.40;;;;;;5060611;28;20327;-60
2022/05/09 02:31:05;;;;;;;3.00;1.60;;;20.20;39.40;;;;;;5062567;28;20234;-60
2022/05/09 02:33:30;;;;;;;1.90;1.80;;;20.20;39.40;;;;;;5064115;28;20442;-60
2022/05/09 02:35:56;;;;;;;2.07;1.87;;;20.20;39.40;;;;;;5061300;28;20321;-60
2022/05/09 02:38:24;;;;;;;2.13;2.03;;;20.20;39.50;;;;;;5059678;28;20248;-61
2022/05/09 02:40:51;;;;;;;1.80;1.70;;;20.10;39.30;;;;;;5061213;28;20224;-60
2022/05/09 02:43:17;;;;;;;2.00;1.90;;;20.10;39.30;;;;;;5068906;28;20447;-61
2022/05/09 02:45:43;;;;;;;1.80;1.70;;;20.20;39.40;;;;;;5058421;28;20473;-60
2022/05/09 02:48:10;;;;;;;2.20;1.87;;;20.10;39.30;;;;;;5057031;28;20241;-62
2022/05/09 02:50:35;;;;;;;1.97;1.87;;;20.10;39.30;;;;;;5063415;28;20438;-60
2022/05/09 02:53:01;;;;;;;1.80;1.70;;;20.10;39.30;;;;;;5060767;28;21044;-59
2022/05/09 02:55:27;;;;;;;3.00;2.13;;;20.10;39.30;;;;;;5058055;28;20257;-62
2022/05/09 02:57:52;;;;;;;2.50;2.30;;;20.10;39.20;;;;;;5057415;28;20221;-60
2022/05/09 03:00:24;;;;;;;1.80;1.70;;;20.10;39.20;;;;;;5058587;28;20677;-60
2022/05/09 03:05:37;;;;;;;1.90;1.80;;;20.10;39.00;;;;;;5059386;28;20462;-61
2022/05/09 03:08:03;;;;;;;2.33;2.00;;;20.10;39.00;;;;;;5059265;28;20423;-62
2022/05/09 03:10:28;;;;;;;2.30;2.10;;;20.10;39.00;;;;;;5058841;28;20581;-60
2022/05/09 03:12:59;;;;;;;2.10;2.00;;;20.10;38.90;;;;;;5059477;28;20992;-59
2022/05/09 03:15:26;;;;;;;2.27;2.07;;;20.10;38.90;;;;;;5062705;28;20231;-62
2022/05/09 03:17:52;;;;;;;2.27;2.17;;;20.10;38.90;;;;;;5056716;28;20450;-61
2022/05/09 03:20:17;;;;;;;1.90;1.80;;;20.10;38.90;;;;;;5057249;28;20433;-61
2022/05/09 03:22:43;;;;;;;2.13;1.93;;;20.10;38.80;;;;;;5060286;28;20228;-62
2022/05/09 03:25:09;;;;;;;1.97;1.87;;;20.10;38.80;;;;;;5059523;28;20217;-60
2022/05/09 03:27:34;;;;;;;2.20;2.10;;;20.10;38.80;;;;;;5060136;28;20218;-61
2022/05/09 03:30:00;;;;;;;2.20;2.10;;;20.10;38.70;;;;;;5059009;28;20246;-60
2022/05/09 03:32:25;;;;;;;5.03;1.87;;;20.10;38.70;;;;;;5060947;28;20234;-60
2022/05/09 03:34:51;;;;;;;1.80;1.70;;;20.10;38.60;;;;;;5057397;28;20291;-60
2022/05/09 03:37:16;;;;;;;2.30;2.20;;;20.10;38.60;;;;;;5061502;28;20225;-62
2022/05/09 03:39:42;;;;;;;2.00;1.90;;;20.10;38.70;;;;;;5060000;28;20226;-62
2022/05/09 03:42:08;;;;;;;1.97;1.87;;;20.10;38.60;;;;;;5064439;28;20313;-61
2022/05/09 03:44:33;;;;;;;2.20;2.10;;;20.10;38.60;;;;;;5060905;28;20241;-59
2022/05/09 03:46:59;;;;;;;2.13;2.03;;;20.10;38.50;;;;;;5058984;28;20219;-59
2022/05/09 03:49:25;;;;;;;2.57;2.27;;;20.10;38.50;;;;;;5062493;28;20213;-62
2022/05/09 03:51:50;;;;;;;2.10;1.90;;;20.10;38.50;;;;;;5063225;28;20213;-60
2022/05/09 03:54:16;;;;;;;2.13;2.03;;;20.10;38.50;;;;;;5066075;28;20916;-59
2022/05/09 03:56:42;;;;;;;2.17;2.07;;;20.10;38.50;;;;;;5093610;28;20222;-62
2022/05/09 03:59:08;;;;;;;2.43;2.33;;;20.10;38.40;;;;;;5060514;28;20231;-61
2022/05/09 04:01:34;;;;;;;1.80;1.70;;;20.10;38.50;;;;;;5064148;28;20241;-60
2022/05/09 04:04:00;;;;;;;2.77;1.97;;;20.10;38.50;;;;;;5060130;28;20765;-61
2022/05/09 04:06:26;;;;;;;1.70;1.60;;;20.10;38.70;;;;;;5062583;28;20448;-59
2022/05/09 04:08:52;;;;;;;1.60;1.50;;;20.10;38.90;;;;;;5058407;28;20383;-60
2022/05/09 04:11:17;;;;;;;1.90;1.80;;;20.10;39.20;;;;;;5059024;28;20279;-58
2022/05/09 04:13:43;;;;;;;1.77;1.67;;;20.10;39.30;;;;;;5059917;28;20225;-60
2022/05/09 04:18:56;;;;;;;2.00;1.90;;;20.10;39.30;;;;;;5059601;28;20340;-56
2022/05/09 04:21:22;;;;;;;1.77;1.67;;;20.10;39.30;;;;;;5055928;28;20489;-56
2022/05/09 04:23:49;;;;;;;1.80;1.70;;;20.10;39.30;;;;;;5059172;28;20444;-59
2022/05/09 04:26:16;;;;;;;1.70;1.60;;;20.10;39.60;;;;;;5057493;28;20225;-57
2022/05/09 04:28:42;;;;;;;1.83;1.73;;;20.10;39.80;;;;;;5058227;28;20475;-57
2022/05/09 04:31:08;;;;;;;1.80;1.70;;;20.10;40.00;;;;;;5059931;28;20971;-60
2022/05/09 04:33:33;;;;;;;1.90;1.80;;;20.10;40.20;;;;;;5059667;28;20301;-59
2022/05/09 04:35:59;;;;;;;1.83;1.73;;;20.10;40.20;;;;;;5060044;28;20240;-59
2022/05/09 04:38:26;;;;;;;1.93;1.83;;;20.10;40.50;;;;;;5059392;28;20586;-61
2022/05/09 04:40:54;;;;;;;1.67;1.57;;;20.10;40.50;;;;;;5061399;28;20315;-59
2022/05/09 04:43:22;;;;;;;1.60;1.50;;;20.10;40.70;;;;;;5059909;28;20453;-59
2022/05/09 04:45:50;;;;;;;1.80;1.70;;;20.10;40.70;;;;;;5057709;28;20455;-62
2022/05/09 04:48:17;;;;;;;1.60;1.50;;;20.00;40.70;;;;;;5053078;28;20415;-59
2022/05/09 04:50:43;;;;;;;2.30;2.20;;;20.00;40.80;;;;;;5059981;28;20447;-61
2022/05/09 04:53:09;;;;;;;1.73;1.63;;;20.00;40.90;;;;;;5058853;28;20436;-60
2022/05/09 04:55:34;;;;;;;1.97;1.87;;;20.10;41.10;;;;;;5057919;28;20486;-61
2022/05/09 04:58:00;;;;;;;1.77;1.67;;;20.10;41.10;;;;;;5055663;28;20214;-60
2022/05/09 05:00:27;;;;;;;1.90;1.80;;;20.00;41.20;;;;;;5059920;28;21047;-60
2022/05/09 05:02:54;;;;;;;1.90;1.80;;;20.10;41.30;;;;;;5059587;28;20222;-59
2022/05/09 05:05:21;;;;;;;2.00;1.90;;;20.00;41.40;;;;;;5061322;28;20432;-61
2022/05/09 05:07:48;;;;;;;2.17;2.07;;;20.00;41.40;;;;;;5058591;28;20470;-60
2022/05/09 05:10:14;;;;;;;1.80;1.70;;;20.00;41.50;;;;;;5060072;28;20426;-60
2022/05/09 05:12:39;;;;;;;2.30;2.20;;;20.00;41.50;;;;;;5059115;28;20778;-60
2022/05/09 05:15:06;;;;;;;1.80;1.70;;;20.00;41.50;;;;;;5059539;28;20511;-60
2022/05/09 05:17:31;;;;;;;2.00;1.90;;;20.00;41.60;;;;;;5078781;27;20241;-59
2022/05/09 05:19:57;;;;;;;1.93;1.83;;;20.00;41.60;;;;;;5076700;27;20467;-60
2022/05/09 05:22:22;;;;;;;2.13;2.03;;;20.00;41.60;;;;;;5081459;27;20225;-59
2022/05/09 05:24:52;;;;;;;2.03;1.93;;;20.00;41.60;;;;;;5078689;28;20311;-59
2022/05/09 05:27:21;;;;;;;2.10;2.00;;;20.00;41.70;;;;;;5081151;28;20300;-59
2022/05/09 05:29:47;;;;;;;1.90;1.80;;;20.00;41.80;;;;;;5078607;28;20808;-60
2022/05/09 05:32:24;;;;;;;1.80;1.70;;;20.00;42.60;;;;;;5082539;28;20476;-60
2022/05/09 05:34:50;;;;;;;1.80;1.70;;;20.00;42.00;;;;;;5115193;27;20821;-59
2022/05/09 05:37:17;;;;;;;1.87;1.77;;;20.00;42.00;;;;;;5085271;27;20442;-58
2022/05/09 05:39:43;;;;;;;6.30;1.83;;;20.00;42.00;;;;;;5083386;27;20298;-59
2022/05/09 05:42:09;;;;;;;2.00;1.90;;;20.00;42.00;;;;;;5081300;27;20454;-59
2022/05/09 05:44:37;;;;;;;2.40;2.30;;;20.00;42.00;;;;;;5082530;28;20437;-58
2022/05/09 05:47:11;;;;;;;2.00;1.90;;;20.00;42.10;;;;;;5079484;27;20462;-66
2022/05/09 05:49:37;;;;;;;1.90;1.80;;;20.00;42.10;;;;;;5079104;28;20412;-62
2022/05/09 05:52:04;;;;;;;2.20;2.10;;;20.00;42.20;;;;;;5084724;27;20416;-59
2022/05/09 05:54:40;;;;;;;1.90;1.80;;;20.00;42.10;;;;;;5077592;27;20425;-59
2022/05/09 05:57:15;;;;;;;1.90;1.80;;;20.00;42.10;;;;;;5082563;28;20512;-59
2022/05/09 05:59:40;;;;;;;1.83;1.73;;;20.00;42.20;;;;;;5076502;28;20436;-61
2022/05/09 06:02:06;;;;;;;2.10;2.00;;;20.00;42.30;;;;;;5080168;27;20434;-60
2022/05/09 06:04:31;;;;;;;2.03;1.93;;;20.00;42.20;;;;;;5083187;28;20221;-62
2022/05/09 06:06:57;;;;;;;1.90;1.80;;;20.10;42.30;;;;;;5083503;27;20712;-60
2022/05/09 06:09:22;;;;;;;1.90;1.80;;;20.10;42.30;;;;;;5080939;27;20667;-60
2022/05/09 06:11:48;;;;;;;2.10;2.00;;;20.10;42.30;;;;;;5080899;28;20223;-60
2022/05/09 06:14:13;;;;;;;1.87;1.77;;;20.10;42.40;;;;;;5079557;27;20229;-59
2022/05/09 06:16:40;;;;;;;1.67;1.57;;;20.10;42.50;;;;;;5081649;27;20320;-61
2022/05/09 06:19:06;;;;;;;1.83;1.73;;;20.10;42.50;;;;;;5078648;27;20221;-61
2022/05/09 06:21:35;;;;;;;2.00;1.90;;;20.10;42.50;;;;;;5080748;27;20442;-60
2022/05/09 06:24:02;;;;;;;2.20;2.10;;;20.10;42.50;;;;;;5082764;27;20771;-61
2022/05/09 06:26:28;;;;;;;2.07;1.97;;;20.10;42.50;;;;;;5079786;28;20767;-61
2022/05/09 06:28:54;;;;;;;2.17;1.97;;;20.10;42.50;;;;;;5081880;27;20445;-59
2022/05/09 06:31:19;;;;;;;1.97;1.87;;;20.10;42.60;;;;;;5077593;28;20454;-60
2022/05/09 06:33:45;;;;;;;1.60;1.50;;;20.10;43.30;;;;;;5081037;27;20823;-59
2022/05/09 06:36:10;;;;;;;1.90;1.80;;;20.10;42.60;;;;;;5085203;28;20286;-59
2022/05/09 06:38:36;;;;;;;2.13;2.03;;;20.10;42.60;;;;;;5079593;28;20682;-59
2022/05/09 06:41:02;;;;;;;1.83;1.73;;;20.10;42.70;;;;;;5081243;28;20686;-59
2022/05/09 06:43:30;;;;;;;2.30;2.20;;;20.10;42.60;;;;;;5084350;28;20286;-58
2022/05/09 06:45:56;;;;;;;3.63;2.33;;;20.10;42.60;;;;;;5078182;27;20313;-59
2022/05/09 06:48:22;;;;;;;1.87;1.77;;;20.10;42.70;;;;;;5079040;28;20954;-60
2022/05/09 06:50:48;;;;;;;2.10;2.00;;;20.10;42.70;;;;;;5081741;28;20424;-59
2022/05/09 06:53:13;;;;;;;1.87;1.77;;;20.10;42.70;;;;;;5080567;28;20416;-59
2022/05/09 06:55:40;;;;;;;2.10;2.00;;;20.10;42.70;;;;;;5080223;28;20229;-58
2022/05/09 06:58:07;;;;;;;2.07;1.97;;;20.10;42.80;;;;;;5076739;28;20263;-58
2022/05/09 07:00:33;;;;;;;1.90;1.80;;;20.10;42.80;;;;;;5078411;28;20463;-57
2022/05/09 07:02:59;;;;;;;2.33;2.23;;;20.10;42.80;;;;;;5079826;28;21002;-58
2022/05/09 07:05:25;;;;;;;2.10;2.00;;;20.10;43.60;;;;;;5081752;28;20975;-59
2022/05/09 07:07:50;;;;;;;1.97;1.87;;;20.10;42.80;;;;;;5075701;27;20216;-59
2022/05/09 07:10:18;;;;;;;1.90;1.80;;;20.10;42.90;;;;;;5081247;28;20950;-58
2022/05/09 07:12:45;;;;;;;1.90;1.80;;;20.10;42.80;;;;;;5082962;27;20217;-58
2022/05/09 07:15:13;;;;;;;2.03;1.93;;;20.10;42.90;;;;;;5080948;27;20461;-58
2022/05/09 07:17:39;;;;;;;2.40;2.30;;;20.10;42.90;;;;;;5076695;28;20521;-58
2022/05/09 07:20:05;;;;;;;2.13;2.03;;;20.10;42.90;;;;;;5077888;28;20529;-58
2022/05/09 07:22:31;;;;;;;2.17;2.07;;;20.10;42.90;;;;;;5076964;28;20300;-58
2022/05/09 07:24:57;;;;;;;2.00;1.90;;;20.10;42.90;;;;;;5081599;27;20522;-58
2022/05/09 07:27:23;;;;;;;2.23;2.00;;;20.20;43.00;;;;;;5078577;27;20881;-60
2022/05/09 07:29:48;;;;;;;2.20;2.10;;;20.10;42.90;;;;;;5079717;28;20649;-58
2022/05/09 07:32:14;;;;;;;2.00;1.90;;;20.10;42.90;;;;;;5083525;28;20231;-59
2022/05/09 07:34:39;;;;;;;2.40;2.20;;;20.20;43.00;;;;;;5080906;27;20327;-59
2022/05/09 07:37:05;;;;;;;2.30;2.20;;;20.20;43.00;;;;;;5085210;27;20662;-58
2022/05/09 07:39:31;;;;;;;2.27;2.17;;;20.20;43.00;;;;;;5082274;28;20221;-58
2022/05/09 07:41:57;;;;;;;2.00;1.90;;;20.20;43.00;;;;;;5080719;27;20225;-60
2022/05/09 07:44:23;;;;;;;2.00;1.90;;;20.20;43.10;;;;;;5078087;28;20225;-58
2022/05/09 07:46:48;;;;;;;2.10;2.00;;;20.20;43.10;;;;;;5079247;27;20439;-58
2022/05/09 07:49:15;;;;;;;2.13;2.03;;;20.20;43.10;;;;;;5082287;27;20201;-59
2022/05/09 07:51:40;;;;;;;2.60;2.47;;;20.20;43.10;;;;;;5078792;28;20209;-59
2022/05/09 07:54:07;;;;;;;2.43;2.23;;;20.20;43.10;;;;;;5079467;28;20491;-59
2022/05/09 07:56:33;;;;;;;2.17;2.07;;;20.20;43.10;;;;;;5077240;28;20856;-58
2022/05/09 07:58:59;;;;;;;2.13;2.03;;;20.20;43.10;;;;;;5077824;27;20522;-58
2022/05/09 08:01:25;;;;;;;2.27;2.17;;;20.20;43.20;;;;;;5079061;28;20247;-58
2022/05/09 08:03:51;;;;;;;2.47;2.37;;;20.20;43.20;;;;;;5079367;27;20412;-59
2022/05/09 08:06:17;;;;;;;2.40;2.30;;;20.20;43.20;;;;;;5078177;28;21025;-60
2022/05/09 08:08:43;;;;;;;2.60;2.50;;;20.20;43.20;;;;;;5079979;28;20704;-59
2022/05/09 08:11:11;;;;;;;2.33;2.23;;;20.20;43.10;;;;;;5079134;28;20209;-59
2022/05/09 08:13:39;;;;;;;2.43;2.33;;;20.20;43.20;;;;;;5080438;27;21005;-59
2022/05/09 08:16:05;;;;;;;2.37;2.27;;;20.20;43.20;;;;;;5078415;28;20457;-58
2022/05/09 08:18:32;;;;;;;3.00;2.80;;;20.20;43.20;;;;;;5078377;27;20453;-59
2022/05/09 08:20:59;;;;;;;2.60;2.47;;;20.20;43.20;;;;;;5079699;27;20922;-58
2022/05/09 08:23:27;;;;;;;2.60;2.50;;;20.20;43.20;;;;;;5075793;28;20428;-58
2022/05/09 08:25:55;;;;;;;2.07;1.97;;;20.20;43.20;;;;;;5080651;27;20832;-59
2022/05/09 08:28:21;;;;;;;2.73;2.53;;;20.20;43.20;;;;;;5080617;28;20470;-60
2022/05/09 08:30:48;;;;;;;2.60;2.50;;;20.20;43.30;;;;;;5076586;28;20489;-60
2022/05/09 08:33:17;;;;;;;2.30;2.10;;;20.20;43.30;;;;;;5083885;28;20676;-58
2022/05/09 08:35:45;;;;;;;2.20;2.00;;;20.20;43.30;;;;;;5078291;27;20851;-59
2022/05/09 08:38:12;;;;;;;2.43;2.30;;;20.20;43.30;;;;;;5078564;27;20451;-58
2022/05/09 08:41:12;;;;;;;3.53;3.33;;;20.20;43.30;;;;;;5078140;28;20456;-58
2022/05/09 08:44:19;;;;;;;2.70;2.50;;;20.20;43.30;;;;;;5076565;28;20484;-57
2022/05/09 08:47:15;;;;;;;2.60;2.50;;;20.20;43.30;;;;;;5080012;27;20450;-59
2022/05/09 08:49:55;;;;;;;2.40;2.30;;;20.20;43.40;;;;;;5079710;27;20483;-58
2022/05/09 08:52:25;;;;;;;2.30;2.20;;;20.20;43.40;;;;;;5078098;27;20528;-58
2022/05/09 08:54:53;;;;;;;2.83;2.73;;;20.20;43.40;;;;;;5080587;27;21420;-58
2022/05/09 08:57:34;;;;;;;3.27;3.07;;;20.20;43.40;;;;;;5082422;27;20446;-58
2022/05/09 09:00:06;;;;;;;2.63;2.53;;;20.20;43.30;;;;;;5084166;27;20476;-59
2022/05/09 09:02:40;;;;;;;2.43;2.33;;;20.20;43.30;;;;;;5082156;28;21294;-60
2022/05/09 09:05:09;;;;;;;2.80;2.60;;;20.20;43.30;;;;;;5081272;27;20485;-58
2022/05/09 09:07:41;;;;;;;2.90;2.70;;;20.20;43.50;;;;;;5062036;28;20447;-61
2022/05/09 09:10:34;;;;;;;3.43;2.77;;;20.20;43.30;;;;;;5072002;28;20445;-59
2022/05/09 09:13:29;;;;;;;2.57;2.47;;;20.20;43.30;;;;;;5080057;28;20952;-58
2022/05/09 09:16:20;;;;;;;2.93;2.73;;;20.20;43.40;;;;;;5059187;27;20425;-58
2022/05/09 09:19:19;;;;;;;3.43;3.23;;;20.20;43.40;;;;;;5085005;28;20479;-59
2022/05/09 09:22:08;;;;;;;2.80;2.70;;;20.20;43.40;;;;;;5081313;27;20433;-59
2022/05/09 09:25:06;;;;;;;3.10;2.90;;;20.20;43.40;;;;;;5088930;27;20515;-60
2022/05/09 09:27:44;;;;;;;3.60;3.40;;;20.20;43.50;;;;;;5086487;28;20468;-59
2022/05/09 09:30:15;;;;;;;3.07;2.87;;;20.20;44.20;;;;;;5087719;27;20464;-59
2022/05/09 09:32:43;;;;;;;3.30;3.10;;;20.20;43.50;;;;;;5087068;28;20421;-59
2022/05/09 09:35:53;;;;;;;2.83;2.67;;;20.20;43.50;;;;;;5093760;27;20810;-59
2022/05/09 09:38:42;;;;;;;3.73;3.43;;;20.20;43.50;;;;;;5080874;28;20803;-59
2022/05/09 09:41:16;;;;;;;3.07;2.90;;;20.20;43.50;;;;;;5086064;27;20442;-59
2022/05/09 09:43:42;;;;;;;3.20;3.00;;;20.20;43.60;;;;;;5082568;27;20450;-58
2022/05/09 09:46:09;;;;;;;3.40;3.20;;;20.30;43.60;;;;;;5087096;27;20450;-58
2022/05/09 09:48:35;;;;;;;3.03;2.87;;;20.20;43.60;;;;;;5082753;28;20408;-58
2022/05/09 09:51:10;;;;;;;2.70;2.60;;;20.20;43.60;;;;;;5081191;28;20567;-58
2022/05/09 09:53:59;;;;;;;2.90;2.80;;;20.20;43.60;;;;;;5081913;28;20214;-59
2022/05/09 09:56:26;;;;;;;3.50;3.30;;;20.30;43.60;;;;;;5090487;28;20469;-58
2022/05/09 09:59:15;;;;;;;3.40;3.20;;;20.20;43.60;;;;;;5084575;28;20435;-60
2022/05/09 10:01:41;;;;;;;3.60;3.40;;;20.30;43.60;;;;;;5091685;28;20458;-60
2022/05/09 10:04:12;;;;;;;4.40;4.10;;;20.20;43.60;;;;;;5083160;28;20503;-58
2022/05/09 10:07:01;;;;;;;3.00;2.80;;;20.20;43.60;;;;;;5080373;28;20214;-60
2022/05/09 10:09:32;;;;;;;3.60;3.40;;;20.30;43.70;;;;;;5083844;27;20452;-58
2022/05/09 10:12:21;;;;;;;3.23;3.03;;;20.20;43.60;;;;;;5083038;28;20447;-58
2022/05/09 10:14:48;;;;;;;3.33;3.13;;;20.20;43.70;;;;;;5086135;27;20445;-59
2022/05/09 10:17:15;;;;;;;3.60;3.40;;;20.20;43.70;;;;;;5089478;27;20492;-59
2022/05/09 10:19:41;;;;;;;3.27;3.07;;;20.20;43.70;;;;;;5082249;28;20973;-59
2022/05/09 10:25:20;;;;;;;3.17;3.07;;;20.20;43.70;;;;;;5081992;28;20275;-59
2022/05/09 10:28:00;;;;;;;3.87;3.67;;;20.20;43.70;;;;;;5085033;28;20805;-58
2022/05/09 10:30:33;;;;;;;3.23;3.03;;;20.20;43.70;;;;;;5080400;28;20454;-59
2022/05/09 10:33:02;;;;;;;3.33;3.13;;;20.20;43.80;;;;;;5082789;27;20447;-58
2022/05/09 10:35:36;;;;;;;3.67;3.43;;;20.20;43.70;;;;;;5082693;28;20432;-58
2022/05/09 10:38:02;;;;;;;3.80;3.60;;;20.20;43.80;;;;;;5077436;28;20456;-59
2022/05/09 10:40:40;;;;;;;3.60;3.40;;;20.20;43.80;;;;;;5079832;27;20438;-58
2022/05/09 10:43:09;;;;;;;3.53;3.33;;;20.20;43.80;;;;;;5080047;28;20229;-59
2022/05/09 10:45:45;;;;;;;3.80;3.60;;;20.20;43.80;;;;;;5083715;27;20446;-59
2022/05/09 10:48:35;;;;;;;3.97;3.77;;;20.20;43.80;;;;;;5084193;27;20442;-58
2022/05/09 10:51:28;;;;;;;3.70;3.50;;;20.20;43.80;;;;;;5083891;27;20473;-58
2022/05/09 10:54:05;;;;;;;3.43;3.23;;;20.20;43.80;;;;;;5079551;28;20500;-58
2022/05/09 10:56:33;;;;;;;3.60;3.40;;;20.20;43.80;;;;;;5081852;28;20458;-59
2022/05/09 10:59:09;;;;;;;3.53;3.33;;;20.20;43.90;;;;;;5082757;27;20438;-58
2022/05/09 11:02:16;;;;;;;3.93;3.73;;;20.20;43.80;;;;;;5079916;28;20469;-58
2022/05/09 11:04:41;;;;;;;4.30;4.00;;;20.20;43.90;;;;;;5070230;28;20457;-60
2022/05/09 11:07:30;;;;;;;3.83;3.63;;;20.20;43.90;;;;;;5080849;28;20509;-59
2022/05/09 11:09:56;;;;;;;4.30;4.00;;;20.20;43.90;;;;;;5080768;28;20217;-58
2022/05/09 11:12:40;;;;;;;3.90;3.70;;;20.20;43.90;;;;;;5081578;27;20470;-61
2022/05/09 11:15:21;;;;;;;4.40;4.20;;;20.20;43.90;;;;;;5064714;28;20234;-60
2022/05/09 11:18:08;;;;;;;4.67;4.47;;;20.20;43.90;;;;;;5063348;28;20495;-58
2022/05/09 11:20:40;;;;;;;4.10;3.90;;;20.20;43.90;;;;;;5058103;28;20451;-59
2022/05/09 11:23:20;;;;;;;4.10;3.90;;;20.20;43.90;;;;;;5059516;28;20448;-58
2022/05/09 11:26:04;;;;;;;4.50;4.20;;;20.20;43.90;;;;;;5059036;28;20813;-59
2022/05/09 11:29:04;;;;;;;4.30;4.10;;;20.20;44.00;;;;;;5058902;28;21119;-58
2022/05/09 11:31:52;;;;;;;4.63;4.27;;;20.20;43.90;;;;;;5061688;28;20451;-58
2022/05/09 11:35:12;;;;;;;4.60;4.40;;;20.20;44.80;;;;;;5066409;28;20902;-59
2022/05/09 11:37:53;;;;;;;4.87;4.57;;;20.20;44.00;;;;;;5035295;28;20611;-64
2022/05/09 11:40:19;;;;;;;4.60;4.40;;;20.20;44.10;;;;;;5057670;28;20443;-59
2022/05/09 11:45:50;;;;;;;4.53;4.33;;;20.20;44.10;;;;;;5059198;28;20302;-58
2022/05/09 11:48:27;;;;;;;4.40;4.20;;;20.20;44.10;;;;;;5062397;28;20531;-59
2022/05/09 11:51:22;;;;;;;5.13;4.83;;;20.20;44.10;;;;;;5057851;28;20234;-60
2022/05/09 11:53:57;;;;;;;5.00;4.70;;;20.20;44.00;;;;;;5065303;28;20472;-59
2022/05/09 11:56:24;;;;;;;5.30;4.90;;;20.20;44.10;;;;;;5057336;28;20464;-60
2022/05/09 11:58:50;;;;;;;4.53;4.33;;;20.20;44.10;;;;;;5060596;28;20537;-59
2022/05/09 12:01:15;;;;;;;5.90;5.50;;;20.20;44.10;;;;;;5061338;28;20455;-59
2022/05/09 12:03:41;;;;;;;5.20;4.90;;;20.20;44.10;;;;;;5056317;28;20484;-59
2022/05/09 12:06:12;;;;;;;5.30;5.00;;;20.20;44.10;;;;;;5060567;28;20229;-59
2022/05/09 12:08:46;;;;;;;5.17;4.80;;;20.20;44.10;;;;;;5061310;28;20609;-60
2022/05/09 12:11:22;;;;;;;5.43;5.13;;;20.20;44.10;;;;;;5057908;28;20498;-58
2022/05/09 12:13:50;;;;;;;6.30;6.00;;;20.20;44.10;;;;;;5064112;28;20473;-58
2022/05/09 12:16:36;;;;;;;5.87;5.47;;;20.20;44.10;;;;;;5058962;28;20826;-58
2022/05/09 12:19:05;;;;;;;5.80;5.40;;;20.20;44.10;;;;;;5062558;28;20454;-58
2022/05/09 12:21:37;;;;;;;5.70;5.30;;;20.20;44.20;;;;;;5060236;28;20464;-59
2022/05/09 12:24:14;;;;;;;5.90;5.50;;;20.10;44.10;;;;;;5061981;28;20482;-59
2022/05/09 12:26:42;;;;;;;5.40;5.10;;;20.10;44.00;;;;;;5057247;28;20533;-58
2022/05/09 12:29:11;;;;;;;5.17;4.80;;;20.10;44.10;;;;;;5058524;28;20517;-59
2022/05/09 12:31:39;;;;;;;5.37;5.07;;;20.20;44.20;;;;;;5060312;28;20456;-59
2022/05/09 12:34:07;;;;;;;5.63;5.33;;;20.20;44.20;;;;;;5068125;28;20450;-59
2022/05/09 12:36:35;;;;;;;5.90;5.60;;;20.10;44.10;;;;;;5059565;28;20505;-58
2022/05/09 12:39:08;;;;;;;5.87;5.37;;;20.10;44.10;;;;;;5055700;28;20915;-58
2022/05/09 12:41:56;;;;;;;5.90;5.60;;;20.20;44.20;;;;;;5055948;28;20451;-59
2022/05/09 12:44:46;;;;;;;4.97;4.67;;;20.20;44.30;;;;;;5060099;28;20436;-58
2022/05/09 12:47:25;;;;;;;6.27;5.90;;;20.10;44.10;;;;;;5056932;28;20451;-59
2022/05/09 12:49:59;;;;;;;5.97;5.67;;;20.10;44.10;;;;;;5053777;28;20516;-59
2022/05/09 12:52:29;;;;;;;5.33;5.03;;;20.10;44.20;;;;;;5061720;28;20455;-58
2022/05/09 12:57:42;;;;;;;4.93;4.63;;;20.10;44.20;;;;;;5056559;28;20955;-59
2022/05/09 13:00:21;;;;;;;6.07;5.77;;;20.10;44.30;;;;;;5056582;28;20447;-63
2022/05/09 13:02:47;;;;;;;5.37;5.07;;;20.10;44.20;;;;;;5078684;28;20260;-59
2022/05/09 13:05:15;;;;;;;6.37;6.03;;;20.10;44.30;;;;;;5082481;27;20827;-58
2022/05/09 13:08:01;;;;;;;6.30;5.90;;;20.10;44.20;;;;;;5078136;28;20420;-60
2022/05/09 13:10:28;;;;;;;6.00;5.63;;;20.10;44.30;;;;;;5083392;28;20463;-58
2022/05/09 13:13:03;;;;;;;5.60;5.20;;;20.10;44.20;;;;;;5081734;27;20450;-58
2022/05/09 13:15:30;;;;;;;6.53;6.13;;;20.10;44.20;;;;;;5088013;28;20493;-58
2022/05/09 13:18:01;;;;;;;6.83;6.33;;;20.10;44.20;;;;;;5083681;28;20432;-59
2022/05/09 13:20:30;;;;;;;5.93;5.63;;;20.10;44.30;;;;;;5079254;28;20498;-58